createdAt,value
2018-07-31T00:00:22.991Z,26.41
2018-07-31T00:01:22.996Z,26.41
2018-07-31T00:02:22.997Z,26.26
2018-07-31T00:03:23.025Z,26.26
2018-07-31T00:04:22.997Z,26.22
2018-07-31T00:05:22.997Z,26.25
2018-07-31T00:06:22.996Z,26.25
2018-07-31T00:07:22.999Z,26.25
2018-07-31T00:08:23.000Z,26.22
2018-07-31T00:09:23.002Z,26.19
2018-07-31T00:10:23.012Z,26.22
2018-07-31T00:11:23.001Z,26.25
2018-07-31T00:12:23.003Z,26.16
2018-07-31T00:13:23.005Z,26.16
2018-07-31T00:14:23.003Z,26.13
2018-07-31T00:15:23.005Z,26.00
2018-07-31T00:16:23.007Z,26.02
2018-07-31T00:17:23.008Z,25.99
2018-07-31T00:18:23.008Z,25.91
2018-07-31T00:19:23.009Z,25.96
2018-07-31T00:20:23.006Z,25.96
2018-07-31T00:21:23.009Z,26.00
2018-07-31T00:22:23.008Z,25.93
2018-07-31T00:23:23.011Z,25.91
2018-07-31T00:24:23.011Z,25.85
2018-07-31T00:25:23.013Z,25.88
2018-07-31T00:26:23.014Z,25.90
2018-07-31T00:27:23.011Z,25.87
2018-07-31T00:28:23.024Z,25.81
2018-07-31T00:29:23.016Z,25.77
2018-07-31T00:30:23.015Z,25.75
2018-07-31T00:31:23.016Z,25.81
2018-07-31T00:32:23.013Z,25.83
2018-07-31T00:33:23.016Z,25.78
2018-07-31T00:34:23.016Z,25.80
2018-07-31T00:35:23.014Z,25.69
2018-07-31T00:36:23.016Z,25.70
2018-07-31T00:37:23.018Z,25.66
2018-07-31T00:38:23.023Z,25.70
2018-07-31T00:39:23.032Z,25.75
2018-07-31T00:40:23.019Z,25.63
2018-07-31T00:41:23.023Z,25.68
2018-07-31T00:42:23.018Z,25.69
2018-07-31T00:43:23.017Z,25.70
2018-07-31T00:44:23.023Z,25.63
2018-07-31T00:45:23.026Z,25.72
2018-07-31T00:46:23.023Z,25.66
2018-07-31T00:47:23.023Z,25.70
2018-07-31T00:48:23.021Z,25.69
2018-07-31T00:49:23.024Z,25.62
2018-07-31T00:50:23.028Z,25.72
2018-07-31T00:51:23.024Z,25.60
2018-07-31T00:52:23.025Z,25.54
2018-07-31T00:53:23.025Z,25.54
2018-07-31T00:54:23.024Z,25.55
2018-07-31T00:55:23.026Z,25.59
2018-07-31T00:56:23.023Z,25.55
2018-07-31T00:57:23.027Z,25.48
2018-07-31T00:58:23.027Z,25.44
2018-07-31T00:59:23.031Z,25.48
2018-07-31T01:00:23.026Z,25.51
2018-07-31T01:01:23.025Z,25.47
2018-07-31T01:02:23.032Z,25.41
2018-07-31T01:03:23.024Z,25.43
2018-07-31T01:04:23.028Z,25.35
2018-07-31T01:05:23.031Z,25.36
2018-07-31T01:06:23.030Z,25.36
2018-07-31T01:07:23.028Z,25.40
2018-07-31T01:08:23.041Z,25.44
2018-07-31T01:09:23.028Z,25.41
2018-07-31T01:10:23.039Z,25.36
2018-07-31T01:11:23.030Z,25.40
2018-07-31T01:12:23.032Z,25.36
2018-07-31T01:13:23.039Z,25.35
2018-07-31T01:14:23.032Z,25.32
2018-07-31T01:15:23.032Z,25.35
2018-07-31T01:16:23.031Z,25.23
2018-07-31T01:17:23.031Z,25.23
2018-07-31T01:18:23.033Z,25.26
2018-07-31T01:19:23.029Z,25.35
2018-07-31T01:20:23.030Z,25.26
2018-07-31T01:21:23.032Z,25.22
2018-07-31T01:22:23.029Z,25.21
2018-07-31T01:23:23.041Z,25.22
2018-07-31T01:24:23.033Z,25.26
2018-07-31T01:25:23.031Z,25.11
2018-07-31T01:26:23.036Z,25.18
2018-07-31T01:27:23.034Z,25.14
2018-07-31T01:28:23.037Z,25.10
2018-07-31T01:29:23.037Z,25.10
2018-07-31T01:30:23.034Z,25.10
2018-07-31T01:31:23.035Z,25.07
2018-07-31T01:32:23.037Z,25.07
2018-07-31T01:33:23.036Z,24.98
2018-07-31T01:34:23.034Z,24.98
2018-07-31T01:35:23.036Z,24.95
2018-07-31T01:36:23.035Z,24.95
2018-07-31T01:37:23.033Z,24.93
2018-07-31T01:38:23.035Z,24.91
2018-07-31T01:39:23.033Z,24.91
2018-07-31T01:40:23.037Z,24.91
2018-07-31T01:41:23.037Z,24.86
2018-07-31T01:42:38.035Z,24.93
2018-07-31T01:43:23.036Z,24.77
2018-07-31T01:44:23.061Z,24.78
2018-07-31T01:45:23.035Z,24.80
2018-07-31T01:46:23.066Z,24.80
2018-07-31T01:47:23.044Z,24.70
2018-07-31T01:48:23.038Z,24.85
2018-07-31T01:49:23.037Z,24.73
2018-07-31T01:50:23.045Z,24.76
2018-07-31T01:51:23.045Z,24.66
2018-07-31T01:52:23.035Z,24.70
2018-07-31T01:53:23.036Z,24.61
2018-07-31T01:54:23.064Z,24.61
2018-07-31T01:55:23.039Z,24.65
2018-07-31T01:56:23.039Z,24.57
2018-07-31T01:57:23.050Z,24.48
2018-07-31T01:58:23.046Z,24.61
2018-07-31T01:59:23.054Z,24.60
2018-07-31T02:00:23.035Z,24.50
2018-07-31T02:01:23.033Z,24.55
2018-07-31T02:02:23.037Z,24.58
2018-07-31T02:03:23.036Z,24.53
2018-07-31T02:04:23.047Z,24.58
2018-07-31T02:05:23.034Z,24.60
2018-07-31T02:06:23.081Z,24.60
2018-07-31T02:07:23.037Z,24.65
2018-07-31T02:08:23.035Z,24.51
2018-07-31T02:09:23.040Z,24.57
2018-07-31T02:10:23.037Z,24.53
2018-07-31T02:11:23.037Z,24.48
2018-07-31T02:12:23.050Z,24.51
2018-07-31T02:13:23.049Z,24.55
2018-07-31T02:14:23.037Z,24.48
2018-07-31T02:15:23.031Z,24.51
2018-07-31T02:16:23.035Z,24.54
2018-07-31T02:17:23.070Z,24.50
2018-07-31T02:18:23.036Z,24.42
2018-07-31T02:19:23.044Z,24.43
2018-07-31T02:20:23.049Z,24.43
2018-07-31T02:21:23.044Z,24.45
2018-07-31T02:22:23.062Z,24.47
2018-07-31T02:23:23.043Z,24.43
2018-07-31T02:24:23.049Z,24.40
2018-07-31T02:25:23.051Z,24.42
2018-07-31T02:26:23.056Z,24.38
2018-07-31T02:27:23.065Z,24.36
2018-07-31T02:28:23.127Z,24.35
2018-07-31T02:29:23.044Z,24.33
2018-07-31T02:30:23.049Z,24.40
2018-07-31T02:31:23.033Z,24.39
2018-07-31T02:32:23.051Z,24.36
2018-07-31T02:33:23.048Z,24.33
2018-07-31T02:34:23.087Z,24.36
2018-07-31T02:35:23.045Z,24.24
2018-07-31T02:36:23.055Z,24.33
2018-07-31T02:37:23.044Z,24.33
2018-07-31T02:38:23.035Z,24.30
2018-07-31T02:39:23.035Z,24.30
2018-07-31T02:40:23.051Z,24.29
2018-07-31T02:41:23.044Z,24.28
2018-07-31T02:42:23.031Z,24.29
2018-07-31T02:43:23.046Z,24.21
2018-07-31T02:44:23.032Z,24.23
2018-07-31T02:45:23.047Z,24.20
2018-07-31T02:46:23.032Z,24.11
2018-07-31T02:47:23.047Z,24.10
2018-07-31T02:48:23.069Z,24.10
2018-07-31T02:49:23.029Z,24.10
2018-07-31T02:50:23.041Z,24.11
2018-07-31T02:51:23.031Z,24.14
2018-07-31T02:52:23.030Z,24.11
2018-07-31T02:53:23.031Z,24.16
2018-07-31T02:54:23.034Z,24.06
2018-07-31T02:55:23.027Z,24.03
2018-07-31T02:56:23.031Z,24.10
2018-07-31T02:57:23.026Z,24.06
2018-07-31T02:58:23.152Z,24.05
2018-07-31T02:59:23.029Z,23.95
2018-07-31T03:00:23.029Z,24.03
2018-07-31T03:01:23.028Z,23.88
2018-07-31T03:02:23.048Z,23.96
2018-07-31T03:03:23.028Z,23.96
2018-07-31T03:04:23.059Z,23.91
2018-07-31T03:05:23.031Z,23.91
2018-07-31T03:06:23.054Z,23.84
2018-07-31T03:07:23.049Z,23.80
2018-07-31T03:08:23.044Z,23.76
2018-07-31T03:09:23.048Z,23.76
2018-07-31T03:10:23.025Z,23.78
2018-07-31T03:11:23.028Z,23.74
2018-07-31T03:12:23.047Z,23.76
2018-07-31T03:13:23.026Z,23.77
2018-07-31T03:14:23.029Z,23.78
2018-07-31T03:15:23.027Z,23.71
2018-07-31T03:16:23.027Z,23.76
2018-07-31T03:17:23.035Z,23.66
2018-07-31T03:18:23.027Z,23.66
2018-07-31T03:19:23.022Z,23.65
2018-07-31T03:20:23.021Z,23.61
2018-07-31T03:21:23.028Z,23.58
2018-07-31T03:22:23.029Z,23.66
2018-07-31T03:23:23.022Z,23.63
2018-07-31T03:24:23.020Z,23.61
2018-07-31T03:25:23.021Z,23.61
2018-07-31T03:26:23.021Z,23.65
2018-07-31T03:27:23.020Z,23.61
2018-07-31T03:28:23.051Z,23.58
2018-07-31T03:29:23.020Z,23.62
2018-07-31T03:30:23.020Z,23.59
2018-07-31T03:31:23.027Z,23.65
2018-07-31T03:32:23.020Z,23.61
2018-07-31T03:33:23.017Z,23.61
2018-07-31T03:34:23.022Z,23.65
2018-07-31T03:35:23.058Z,23.59
2018-07-31T03:36:23.020Z,23.63
2018-07-31T03:37:23.021Z,23.58
2018-07-31T03:38:23.017Z,23.58
2018-07-31T03:39:23.018Z,23.62
2018-07-31T03:40:23.013Z,23.61
2018-07-31T03:41:23.016Z,23.63
2018-07-31T03:42:23.017Z,23.58
2018-07-31T03:43:23.012Z,23.51
2018-07-31T03:44:23.014Z,23.59
2018-07-31T03:45:23.014Z,23.50
2018-07-31T03:46:23.011Z,23.58
2018-07-31T03:47:23.032Z,23.50
2018-07-31T03:48:23.010Z,23.47
2018-07-31T03:49:23.017Z,23.36
2018-07-31T03:50:23.013Z,23.46
2018-07-31T03:51:23.012Z,23.32
2018-07-31T03:52:23.012Z,23.40
2018-07-31T03:53:23.008Z,23.37
2018-07-31T03:54:23.010Z,23.37
2018-07-31T03:55:23.012Z,23.44
2018-07-31T03:56:23.010Z,23.40
2018-07-31T03:57:23.006Z,23.36
2018-07-31T03:58:23.008Z,23.37
2018-07-31T03:59:23.008Z,23.39
2018-07-31T04:00:23.015Z,23.36
2018-07-31T04:01:23.004Z,23.36
2018-07-31T04:02:23.010Z,23.31
2018-07-31T04:03:23.002Z,23.36
2018-07-31T04:04:23.004Z,23.32
2018-07-31T04:05:23.030Z,23.39
2018-07-31T04:06:23.004Z,23.31
2018-07-31T04:07:22.999Z,23.31
2018-07-31T04:08:23.004Z,23.27
2018-07-31T04:09:23.001Z,23.27
2018-07-31T04:10:23.000Z,23.36
2018-07-31T04:11:23.001Z,23.37
2018-07-31T04:12:22.999Z,23.21
2018-07-31T04:13:23.000Z,23.18
2018-07-31T04:14:23.002Z,23.23
2018-07-31T04:15:22.998Z,23.25
2018-07-31T04:16:22.996Z,23.31
2018-07-31T04:17:23.000Z,23.23
2018-07-31T04:18:22.997Z,23.23
2018-07-31T04:19:22.997Z,23.25
2018-07-31T04:20:22.997Z,23.27
2018-07-31T04:21:22.999Z,23.24
2018-07-31T04:22:22.992Z,23.20
2018-07-31T04:23:22.993Z,23.25
2018-07-31T04:24:22.990Z,23.32
2018-07-31T04:25:23.003Z,23.27
2018-07-31T04:26:22.994Z,23.34
2018-07-31T04:27:22.994Z,23.34
2018-07-31T04:28:22.995Z,23.25
2018-07-31T04:29:22.991Z,23.36
2018-07-31T04:30:22.990Z,23.31
2018-07-31T04:31:22.992Z,23.32
2018-07-31T04:32:22.992Z,23.36
2018-07-31T04:33:22.990Z,23.37
2018-07-31T04:34:22.992Z,23.37
2018-07-31T04:35:22.990Z,23.31
2018-07-31T04:36:22.986Z,23.31
2018-07-31T04:37:22.988Z,23.31
2018-07-31T04:38:22.985Z,23.31
2018-07-31T04:39:22.982Z,23.25
2018-07-31T04:40:22.987Z,23.31
2018-07-31T04:41:22.990Z,23.27
2018-07-31T04:42:23.078Z,23.15
2018-07-31T04:43:22.981Z,23.15
2018-07-31T04:44:22.982Z,23.23
2018-07-31T04:45:22.982Z,23.31
2018-07-31T04:46:22.987Z,23.31
2018-07-31T04:47:22.982Z,23.37
2018-07-31T04:48:22.985Z,23.28
2018-07-31T04:49:22.981Z,23.40
2018-07-31T04:50:23.006Z,23.39
2018-07-31T04:51:22.977Z,23.31
2018-07-31T04:52:22.978Z,23.36
2018-07-31T04:53:22.977Z,23.37
2018-07-31T04:54:22.981Z,23.34
2018-07-31T04:55:22.979Z,23.39
2018-07-31T04:56:22.979Z,23.37
2018-07-31T04:57:22.979Z,23.37
2018-07-31T04:58:22.974Z,23.47
2018-07-31T04:59:22.976Z,23.41
2018-07-31T05:00:22.977Z,23.56
2018-07-31T05:01:22.979Z,23.51
2018-07-31T05:02:22.975Z,23.54
2018-07-31T05:03:22.975Z,23.58
2018-07-31T05:04:23.020Z,23.63
2018-07-31T05:05:22.973Z,23.61
2018-07-31T05:06:22.973Z,23.61
2018-07-31T05:07:22.974Z,23.69
2018-07-31T05:08:22.972Z,23.76
2018-07-31T05:09:22.975Z,23.80
2018-07-31T05:10:22.976Z,23.95
2018-07-31T05:11:22.972Z,23.99
2018-07-31T05:12:22.969Z,24.02
2018-07-31T05:13:22.971Z,24.08
2018-07-31T05:14:23.033Z,24.11
2018-07-31T05:15:22.972Z,24.17
2018-07-31T05:16:22.979Z,24.26
2018-07-31T05:17:22.975Z,24.23
2018-07-31T05:18:23.001Z,24.32
2018-07-31T05:19:22.977Z,24.39
2018-07-31T05:20:22.974Z,24.36
2018-07-31T05:21:22.976Z,24.47
2018-07-31T05:22:22.976Z,24.50
2018-07-31T05:23:22.976Z,24.48
2018-07-31T05:24:22.979Z,24.66
2018-07-31T05:25:23.108Z,24.65
2018-07-31T05:26:22.978Z,24.74
2018-07-31T05:27:22.977Z,24.76
2018-07-31T05:28:22.984Z,24.93
2018-07-31T05:29:22.984Z,24.95
2018-07-31T05:30:22.996Z,24.95
2018-07-31T05:31:22.986Z,25.04
2018-07-31T05:32:23.046Z,25.14
2018-07-31T05:33:22.988Z,25.17
2018-07-31T05:34:22.988Z,25.16
2018-07-31T05:35:22.989Z,25.26
2018-07-31T05:36:22.993Z,25.36
2018-07-31T05:37:22.996Z,25.40
2018-07-31T05:38:22.999Z,25.51
2018-07-31T05:39:23.004Z,25.55
2018-07-31T05:40:23.002Z,25.66
2018-07-31T05:41:23.001Z,25.69
2018-07-31T05:42:23.001Z,25.80
2018-07-31T05:43:23.002Z,25.95
2018-07-31T05:44:23.007Z,26.13
2018-07-31T05:45:23.018Z,26.10
2018-07-31T05:46:23.015Z,26.10
2018-07-31T05:47:23.014Z,26.21
2018-07-31T05:48:23.018Z,26.23
2018-07-31T05:49:23.020Z,26.36
2018-07-31T05:50:23.021Z,26.37
2018-07-31T05:51:23.057Z,26.29
2018-07-31T05:52:23.034Z,26.40
2018-07-31T05:53:23.034Z,26.38
2018-07-31T05:54:23.035Z,26.43
2018-07-31T05:55:23.035Z,26.59
2018-07-31T05:56:23.042Z,26.68
2018-07-31T05:57:23.088Z,26.75
2018-07-31T05:58:23.048Z,26.81
2018-07-31T05:59:23.052Z,26.88
2018-07-31T06:00:23.054Z,26.84
2018-07-31T06:01:23.062Z,26.84
2018-07-31T06:02:23.061Z,26.96
2018-07-31T06:03:23.065Z,26.88
2018-07-31T06:04:23.070Z,26.89
2018-07-31T06:05:23.069Z,26.88
2018-07-31T06:06:23.075Z,26.93
2018-07-31T06:07:23.084Z,26.95
2018-07-31T06:08:23.088Z,27.14
2018-07-31T06:09:23.097Z,27.27
2018-07-31T06:10:23.090Z,27.35
2018-07-31T06:11:23.148Z,27.44
2018-07-31T06:12:23.098Z,27.51
2018-07-31T06:13:23.113Z,27.65
2018-07-31T06:14:23.107Z,27.65
2018-07-31T06:15:23.171Z,27.71
2018-07-31T06:16:23.462Z,27.77
2018-07-31T06:17:23.419Z,27.75
2018-07-31T06:18:23.937Z,27.73
2018-07-31T06:19:23.570Z,27.90
2018-07-31T06:20:23.442Z,28.02
2018-07-31T06:21:23.211Z,28.07
2018-07-31T06:22:23.294Z,28.19
2018-07-31T06:23:23.703Z,28.27
2018-07-31T06:24:23.358Z,28.35
2018-07-31T06:25:23.174Z,28.33
2018-07-31T06:26:23.159Z,28.38
2018-07-31T06:27:23.186Z,28.20
2018-07-31T06:28:23.187Z,28.17
2018-07-31T06:29:23.226Z,28.07
2018-07-31T06:30:23.176Z,28.02
2018-07-31T06:31:31.152Z,28.01
2018-07-31T06:33:17.285Z,27.89
2018-07-31T06:34:16.886Z,27.93
2018-07-31T06:36:10.659Z,28.14
2018-07-31T06:37:10.611Z,28.37
2018-07-31T06:39:05.413Z,28.32
2018-07-31T06:40:05.384Z,28.49
2018-07-31T06:41:06.239Z,28.64
2018-07-31T06:42:05.361Z,28.69
2018-07-31T06:43:05.367Z,28.78
2018-07-31T06:44:05.391Z,28.63
2018-07-31T06:45:05.381Z,28.76
2018-07-31T06:46:05.392Z,28.78
2018-07-31T06:47:05.386Z,28.88
2018-07-31T06:48:09.872Z,28.88
2018-07-31T06:49:05.405Z,28.86
2018-07-31T06:50:05.407Z,28.88
2018-07-31T06:51:05.407Z,28.88
2018-07-31T06:52:05.418Z,28.98
2018-07-31T06:53:05.424Z,29.07
2018-07-31T06:54:05.419Z,29.22
2018-07-31T06:55:05.428Z,29.36
2018-07-31T06:56:05.427Z,29.34
2018-07-31T06:57:05.435Z,29.51
2018-07-31T06:58:05.438Z,29.57
2018-07-31T06:59:05.445Z,29.66
2018-07-31T07:00:05.458Z,29.68
2018-07-31T07:01:05.451Z,29.66
2018-07-31T07:02:05.492Z,29.60
2018-07-31T07:03:05.461Z,29.54
2018-07-31T07:04:06.507Z,29.27
2018-07-31T07:05:05.477Z,29.12
2018-07-31T07:06:05.481Z,28.94
2018-07-31T07:07:05.485Z,28.86
2018-07-31T07:08:05.497Z,28.79
2018-07-31T07:09:05.505Z,28.76
2018-07-31T07:10:05.527Z,28.78
2018-07-31T07:11:05.544Z,28.74
2018-07-31T07:12:05.516Z,28.59
2018-07-31T07:13:05.528Z,28.62
2018-07-31T07:14:05.524Z,28.88
2018-07-31T07:15:05.533Z,29.13
2018-07-31T07:16:05.534Z,29.36
2018-07-31T07:17:05.540Z,29.57
2018-07-31T07:18:05.549Z,29.69
2018-07-31T07:19:05.561Z,29.69
2018-07-31T07:20:05.581Z,29.86
2018-07-31T07:21:05.565Z,29.91
2018-07-31T07:22:05.570Z,30.15
2018-07-31T07:23:05.575Z,30.25
2018-07-31T07:24:05.582Z,30.47
2018-07-31T07:25:05.593Z,30.70
2018-07-31T07:26:05.603Z,30.92
2018-07-31T07:27:05.602Z,31.14
2018-07-31T07:28:05.609Z,31.34
2018-07-31T07:29:05.619Z,31.44
2018-07-31T07:30:05.623Z,31.46
2018-07-31T07:31:05.629Z,31.55
2018-07-31T07:32:05.636Z,31.49
2018-07-31T07:33:05.647Z,31.43
2018-07-31T07:34:05.657Z,31.47
2018-07-31T07:35:05.659Z,31.40
2018-07-31T07:36:05.664Z,31.34
2018-07-31T07:37:05.668Z,31.40
2018-07-31T07:38:05.676Z,31.40
2018-07-31T07:39:05.683Z,31.33
2018-07-31T07:40:05.699Z,31.24
2018-07-31T07:41:05.702Z,31.12
2018-07-31T07:42:05.703Z,31.02
2018-07-31T07:43:05.745Z,30.92
2018-07-31T07:44:05.718Z,30.92
2018-07-31T07:45:05.722Z,30.91
2018-07-31T07:46:05.731Z,30.99
2018-07-31T07:47:05.741Z,31.17
2018-07-31T07:48:05.742Z,31.31
2018-07-31T07:49:05.745Z,31.46
2018-07-31T07:50:05.756Z,31.65
2018-07-31T07:51:05.766Z,31.70
2018-07-31T07:52:05.765Z,31.73
2018-07-31T07:53:05.772Z,31.97
2018-07-31T07:54:05.874Z,32.16
2018-07-31T07:55:05.784Z,32.23
2018-07-31T07:56:05.792Z,32.29
2018-07-31T07:57:05.801Z,32.38
2018-07-31T07:58:05.812Z,32.48
2018-07-31T07:59:05.819Z,32.55
2018-07-31T08:00:05.831Z,32.53
2018-07-31T08:01:05.842Z,32.51
2018-07-31T08:02:05.841Z,32.65
2018-07-31T08:03:05.849Z,32.71
2018-07-31T08:04:05.935Z,32.65
2018-07-31T08:05:05.854Z,32.51
2018-07-31T08:06:05.913Z,32.19
2018-07-31T08:07:06.614Z,31.96
2018-07-31T08:08:06.612Z,31.87
2018-07-31T08:09:05.884Z,31.74
2018-07-31T08:10:05.892Z,31.77
2018-07-31T08:11:05.898Z,31.73
2018-07-31T08:12:05.905Z,31.59
2018-07-31T08:13:05.911Z,31.56
2018-07-31T08:14:05.918Z,31.40
2018-07-31T08:15:05.945Z,31.59
2018-07-31T08:16:05.932Z,31.97
2018-07-31T08:17:05.940Z,32.11
2018-07-31T08:18:05.945Z,32.26
2018-07-31T08:19:05.955Z,32.46
2018-07-31T08:20:05.960Z,32.51
2018-07-31T08:21:05.968Z,32.56
2018-07-31T08:22:05.975Z,32.51
2018-07-31T08:23:05.979Z,32.53
2018-07-31T08:24:05.989Z,32.63
2018-07-31T08:25:05.999Z,32.55
2018-07-31T08:26:06.005Z,32.41
2018-07-31T08:27:06.628Z,32.40
2018-07-31T08:28:06.013Z,32.70
2018-07-31T08:29:06.022Z,32.92
2018-07-31T08:30:06.033Z,33.17
2018-07-31T08:31:06.040Z,33.23
2018-07-31T08:32:06.043Z,33.39
2018-07-31T08:33:06.065Z,33.52
2018-07-31T08:34:06.061Z,33.49
2018-07-31T08:35:06.068Z,33.31
2018-07-31T08:36:06.074Z,33.30
2018-07-31T08:37:06.082Z,33.47
2018-07-31T08:38:06.088Z,33.77
2018-07-31T08:39:06.099Z,33.73
2018-07-31T08:40:06.108Z,33.80
2018-07-31T08:41:06.115Z,33.92
2018-07-31T08:42:06.127Z,33.94
2018-07-31T08:43:06.129Z,33.90
2018-07-31T08:44:06.148Z,34.02
2018-07-31T08:45:06.147Z,34.27
2018-07-31T08:46:06.156Z,34.17
2018-07-31T08:47:06.163Z,34.01
2018-07-31T08:48:06.168Z,33.81
2018-07-31T08:49:06.174Z,33.77
2018-07-31T08:50:06.196Z,33.96
2018-07-31T08:51:06.247Z,34.18
2018-07-31T08:52:06.229Z,34.62
2018-07-31T08:53:06.227Z,34.81
2018-07-31T08:54:06.228Z,34.83
2018-07-31T08:55:06.241Z,34.75
2018-07-31T08:56:06.242Z,34.75
2018-07-31T08:57:06.250Z,34.78
2018-07-31T08:58:06.261Z,34.81
2018-07-31T08:59:06.325Z,34.96
2018-07-31T09:00:06.279Z,35.26
2018-07-31T09:01:06.289Z,35.64
2018-07-31T09:02:06.299Z,35.79
2018-07-31T09:03:06.307Z,35.44
2018-07-31T09:04:06.337Z,34.95
2018-07-31T09:05:06.324Z,34.85
2018-07-31T09:06:06.343Z,34.62
2018-07-31T09:07:06.349Z,34.86
2018-07-31T09:08:06.376Z,35.55
2018-07-31T09:09:06.369Z,36.01
2018-07-31T09:10:06.375Z,35.98
2018-07-31T09:11:06.397Z,35.97
2018-07-31T09:12:06.401Z,35.88
2018-07-31T09:13:06.450Z,35.86
2018-07-31T09:14:06.419Z,35.93
2018-07-31T09:15:06.433Z,35.97
2018-07-31T09:16:06.453Z,36.08
2018-07-31T09:17:06.479Z,36.20
2018-07-31T09:18:06.459Z,35.90
2018-07-31T09:19:06.470Z,35.70
2018-07-31T09:20:06.549Z,35.49
2018-07-31T09:21:06.494Z,35.33
2018-07-31T09:22:06.503Z,35.19
2018-07-31T09:23:06.518Z,35.22
2018-07-31T09:24:06.523Z,34.90
2018-07-31T09:25:06.536Z,34.74
2018-07-31T09:26:06.544Z,34.60
2018-07-31T09:27:06.559Z,34.66
2018-07-31T09:28:06.570Z,34.43
2018-07-31T09:29:06.574Z,34.43
2018-07-31T09:30:06.586Z,34.48
2018-07-31T09:31:06.727Z,34.52
2018-07-31T09:32:06.603Z,34.58
2018-07-31T09:33:06.611Z,34.33
2018-07-31T09:34:06.620Z,34.17
2018-07-31T09:35:06.630Z,34.29
2018-07-31T09:36:06.638Z,34.23
2018-07-31T09:37:06.650Z,34.10
2018-07-31T09:38:06.719Z,34.10
2018-07-31T09:39:06.662Z,34.10
2018-07-31T09:40:06.695Z,34.16
2018-07-31T09:41:06.689Z,34.14
2018-07-31T09:42:06.690Z,34.18
2018-07-31T09:43:06.709Z,34.10
2018-07-31T09:44:06.711Z,34.06
2018-07-31T09:45:06.716Z,34.06
2018-07-31T09:46:06.726Z,33.90
2018-07-31T09:47:07.040Z,34.05
2018-07-31T09:48:06.747Z,34.06
2018-07-31T09:49:06.750Z,34.35
2018-07-31T09:50:06.766Z,34.58
2018-07-31T09:51:06.766Z,34.71
2018-07-31T09:52:06.773Z,34.52
2018-07-31T09:53:06.779Z,34.39
2018-07-31T09:54:06.788Z,34.25
2018-07-31T09:55:06.794Z,34.29
2018-07-31T09:56:06.832Z,34.35
2018-07-31T09:57:06.858Z,34.36
2018-07-31T09:58:06.861Z,34.39
2018-07-31T09:59:06.851Z,34.47
2018-07-31T10:00:06.845Z,34.54
2018-07-31T10:01:06.840Z,34.55
2018-07-31T10:02:06.853Z,34.66
2018-07-31T10:03:06.868Z,34.73
2018-07-31T10:04:06.863Z,34.78
2018-07-31T10:05:06.920Z,34.78
2018-07-31T10:06:06.897Z,34.83
2018-07-31T10:07:06.892Z,35.22
2018-07-31T10:08:07.690Z,35.55
2018-07-31T10:09:06.899Z,35.85
2018-07-31T10:10:06.927Z,36.18
2018-07-31T10:11:06.913Z,36.61
2018-07-31T10:12:06.942Z,36.79
2018-07-31T10:13:06.954Z,36.96
2018-07-31T10:14:06.947Z,37.13
2018-07-31T10:15:06.952Z,37.26
2018-07-31T10:16:06.962Z,37.18
2018-07-31T10:17:06.967Z,37.06
2018-07-31T10:18:07.026Z,36.86
2018-07-31T10:19:06.987Z,36.74
2018-07-31T10:20:06.998Z,36.91
2018-07-31T10:21:07.024Z,36.58
2018-07-31T10:22:07.010Z,36.12
2018-07-31T10:23:07.023Z,35.70
2018-07-31T10:24:07.091Z,35.36
2018-07-31T10:25:07.040Z,35.34
2018-07-31T10:26:07.065Z,35.15
2018-07-31T10:27:07.060Z,35.11
2018-07-31T10:28:07.067Z,34.81
2018-07-31T10:29:07.080Z,34.67
2018-07-31T10:30:07.087Z,34.85
2018-07-31T10:31:07.102Z,34.96
2018-07-31T10:32:07.103Z,34.95
2018-07-31T10:33:07.112Z,35.11
2018-07-31T10:34:07.116Z,35.29
2018-07-31T10:35:07.127Z,35.56
2018-07-31T10:36:07.136Z,35.92
2018-07-31T10:37:07.141Z,36.18
2018-07-31T10:38:07.157Z,36.24
2018-07-31T10:39:07.158Z,36.12
2018-07-31T10:40:07.173Z,36.05
2018-07-31T10:41:07.180Z,35.97
2018-07-31T10:42:07.193Z,35.93
2018-07-31T10:43:07.193Z,36.21
2018-07-31T10:44:07.309Z,36.12
2018-07-31T10:45:07.212Z,36.35
2018-07-31T10:46:07.233Z,36.52
2018-07-31T10:47:07.229Z,36.59
2018-07-31T10:48:07.238Z,36.59
2018-07-31T10:49:07.261Z,36.47
2018-07-31T10:50:07.255Z,36.39
2018-07-31T10:51:07.317Z,36.30
2018-07-31T10:52:07.271Z,35.98
2018-07-31T10:53:07.282Z,35.92
2018-07-31T10:54:07.318Z,35.79
2018-07-31T10:55:07.329Z,35.63
2018-07-31T10:56:07.323Z,35.42
2018-07-31T10:57:07.322Z,35.29
2018-07-31T10:58:07.391Z,35.30
2018-07-31T10:59:07.348Z,35.24
2018-07-31T11:00:07.419Z,35.10
2018-07-31T11:01:07.352Z,35.05
2018-07-31T11:02:07.355Z,35.02
2018-07-31T11:03:07.474Z,35.11
2018-07-31T11:04:07.420Z,35.24
2018-07-31T11:05:07.376Z,35.36
2018-07-31T11:06:07.436Z,35.33
2018-07-31T11:07:07.394Z,35.34
2018-07-31T11:08:07.400Z,35.34
2018-07-31T11:09:07.408Z,35.37
2018-07-31T11:10:07.418Z,35.45
2018-07-31T11:11:07.426Z,35.26
2018-07-31T11:12:07.426Z,35.26
2018-07-31T11:13:07.478Z,35.22
2018-07-31T11:14:07.445Z,35.30
2018-07-31T11:15:07.459Z,35.33
2018-07-31T11:16:08.236Z,35.34
2018-07-31T11:17:07.467Z,35.41
2018-07-31T11:18:07.471Z,35.51
2018-07-31T11:19:07.480Z,35.46
2018-07-31T11:20:07.484Z,35.51
2018-07-31T11:21:07.578Z,35.58
2018-07-31T11:22:07.503Z,35.58
2018-07-31T11:23:07.508Z,35.70
2018-07-31T11:24:07.518Z,35.64
2018-07-31T11:25:07.522Z,35.52
2018-07-31T11:26:07.528Z,35.44
2018-07-31T11:27:07.635Z,35.34
2018-07-31T11:28:07.544Z,35.48
2018-07-31T11:29:07.548Z,35.55
2018-07-31T11:30:07.564Z,35.55
2018-07-31T11:31:07.570Z,35.44
2018-07-31T11:32:07.573Z,35.27
2018-07-31T11:33:07.587Z,35.37
2018-07-31T11:34:07.597Z,35.76
2018-07-31T11:35:07.596Z,35.67
2018-07-31T11:36:07.607Z,35.68
2018-07-31T11:37:07.616Z,35.82
2018-07-31T11:38:07.643Z,36.07
2018-07-31T11:39:07.651Z,36.25
2018-07-31T11:40:07.643Z,36.16
2018-07-31T11:41:07.649Z,36.28
2018-07-31T11:42:07.699Z,36.25
2018-07-31T11:43:07.664Z,36.21
2018-07-31T11:44:07.699Z,36.14
2018-07-31T11:45:07.692Z,36.35
2018-07-31T11:46:07.690Z,36.64
2018-07-31T11:47:07.711Z,36.96
2018-07-31T11:48:07.728Z,36.95
2018-07-31T11:49:07.730Z,36.96
2018-07-31T11:50:07.798Z,36.84
2018-07-31T11:51:07.741Z,36.59
2018-07-31T11:52:07.747Z,36.59
2018-07-31T11:53:07.760Z,36.70
2018-07-31T11:54:07.766Z,36.67
2018-07-31T11:55:07.797Z,36.81
2018-07-31T11:56:07.788Z,37.01
2018-07-31T11:57:07.800Z,37.39
2018-07-31T11:58:07.832Z,37.49
2018-07-31T11:59:07.819Z,37.58
2018-07-31T12:00:07.847Z,37.58
2018-07-31T12:01:07.847Z,37.59
2018-07-31T12:02:07.861Z,37.71
2018-07-31T12:03:07.887Z,37.84
2018-07-31T12:04:07.875Z,37.83
2018-07-31T12:05:07.887Z,37.83
2018-07-31T12:06:07.897Z,37.74
2018-07-31T12:07:07.909Z,37.36
2018-07-31T12:08:07.916Z,37.11
2018-07-31T12:09:07.960Z,37.07
2018-07-31T12:10:07.947Z,37.26
2018-07-31T12:11:07.944Z,37.39
2018-07-31T12:12:07.958Z,37.28
2018-07-31T12:13:07.987Z,37.25
2018-07-31T12:14:07.980Z,37.33
2018-07-31T12:15:07.985Z,37.51
2018-07-31T12:16:08.023Z,37.64
2018-07-31T12:17:08.011Z,37.67
2018-07-31T12:18:08.021Z,37.75
2018-07-31T12:19:08.145Z,37.84
2018-07-31T12:20:08.046Z,37.93
2018-07-31T12:21:08.055Z,37.97
2018-07-31T12:22:08.064Z,38.12
2018-07-31T12:23:08.075Z,37.89
2018-07-31T12:24:08.120Z,37.87
2018-07-31T12:25:08.149Z,37.72
2018-07-31T12:26:08.121Z,37.47
2018-07-31T12:27:08.156Z,37.26
2018-07-31T12:28:08.140Z,37.07
2018-07-31T12:29:08.157Z,36.80
2018-07-31T12:30:08.169Z,36.59
2018-07-31T12:31:14.789Z,36.37
2018-07-31T12:32:08.178Z,36.18
2018-07-31T12:33:08.237Z,36.20
2018-07-31T12:34:08.189Z,36.42
2018-07-31T12:35:08.209Z,36.73
2018-07-31T12:36:08.227Z,36.81
2018-07-31T12:37:08.214Z,36.88
2018-07-31T12:38:08.312Z,36.91
2018-07-31T12:39:08.260Z,37.11
2018-07-31T12:40:08.241Z,37.11
2018-07-31T12:41:08.250Z,37.06
2018-07-31T12:42:08.256Z,36.93
2018-07-31T12:43:08.267Z,36.84
2018-07-31T12:44:08.342Z,36.72
2018-07-31T12:45:08.286Z,36.68
2018-07-31T12:46:08.296Z,36.54
2018-07-31T12:47:08.306Z,36.33
2018-07-31T12:48:08.309Z,36.36
2018-07-31T12:49:08.322Z,36.36
2018-07-31T12:50:08.390Z,36.35
2018-07-31T12:51:08.357Z,36.31
2018-07-31T12:52:08.343Z,36.43
2018-07-31T12:53:08.348Z,36.40
2018-07-31T12:54:08.357Z,36.58
2018-07-31T12:55:09.303Z,36.64